Time;durP1;ratioP1;P1;durP2;ratioP2;P2;SDS_P1;SDS_P2;PMS_P1;PMS_P2;Temp;Humidity;BMP_temperature;BMP_pressure;BME280_temperature;BME280_humidity;BME280_pressure;Samples;Min_cycle;Max_cycle;Signal;HPM_P1;HPM_P2
2023/10/22 00:02:11;;;;;;;0.85;0.80;;;18.60;69.80;;;;;;5068311;28;20125;-66
2023/10/22 00:04:40;;;;;;;1.15;0.85;;;18.60;69.80;;;;;;5071295;28;20198;-65
2023/10/22 00:07:06;;;;;;;1.30;0.85;;;18.60;69.80;;;;;;5073982;28;20048;-67
2023/10/22 00:09:32;;;;;;;1.27;1.10;;;18.60;69.70;;;;;;5055952;28;20073;-66
2023/10/22 00:11:58;;;;;;;1.38;0.95;;;18.60;69.80;;;;;;5065162;28;20032;-65
2023/10/22 00:14:23;;;;;;;1.30;0.90;;;18.60;69.80;;;;;;5065025;28;20087;-66
2023/10/22 00:16:49;;;;;;;1.50;1.13;;;18.60;69.90;;;;;;5062371;28;20080;-66
2023/10/22 00:19:14;;;;;;;1.40;0.98;;;18.60;69.80;;;;;;5067353;28;20035;-66
2023/10/22 00:21:40;;;;;;;1.15;0.98;;;18.60;69.80;;;;;;5065047;28;20368;-66
2023/10/22 00:24:06;;;;;;;1.13;1.02;;;18.60;69.80;;;;;;5066701;28;20696;-66
2023/10/22 00:26:31;;;;;;;1.48;1.10;;;18.60;69.70;;;;;;5065248;28;20035;-66
2023/10/22 00:28:57;;;;;;;1.02;0.93;;;18.60;69.80;;;;;;5063251;28;20048;-66
2023/10/22 00:31:23;;;;;;;0.77;0.77;;;18.60;69.80;;;;;;5063453;28;20036;-66
2023/10/22 00:33:48;;;;;;;0.90;0.88;;;18.60;69.80;;;;;;5061085;28;20032;-66
2023/10/22 00:36:14;;;;;;;1.13;1.00;;;18.60;69.70;;;;;;5063395;28;20518;-66
2023/10/22 00:38:39;;;;;;;1.13;0.90;;;18.60;69.70;;;;;;5063300;28;20032;-66
2023/10/22 00:41:05;;;;;;;1.20;0.98;;;18.60;69.80;;;;;;5062988;28;20032;-66
2023/10/22 00:43:30;;;;;;;1.10;0.90;;;18.60;69.80;;;;;;5064632;28;20063;-63
2023/10/22 00:45:57;;;;;;;0.93;0.80;;;18.60;69.80;;;;;;5060280;28;20609;-66
2023/10/22 00:48:24;;;;;;;1.23;0.73;;;18.60;69.70;;;;;;5061351;28;20044;-66
2023/10/22 00:50:50;;;;;;;1.42;0.80;;;18.60;69.70;;;;;;5058759;28;20036;-65
2023/10/22 00:53:16;;;;;;;1.90;1.08;;;18.60;69.80;;;;;;5064652;28;20028;-65
2023/10/22 00:55:45;;;;;;;1.77;0.98;;;18.60;69.70;;;;;;5062223;28;20039;-66
2023/10/22 00:58:12;;;;;;;1.00;0.90;;;18.60;69.80;;;;;;5054229;28;20063;-65
2023/10/22 01:00:38;;;;;;;2.10;0.80;;;18.60;69.80;;;;;;5061863;28;20577;-65
2023/10/22 01:03:04;;;;;;;1.13;1.00;;;18.60;69.70;;;;;;5061271;28;20036;-66
2023/10/22 01:05:31;;;;;;;2.00;0.98;;;18.60;69.80;;;;;;5062235;28;20045;-66
2023/10/22 01:07:58;;;;;;;1.27;0.98;;;18.60;69.80;;;;;;5061081;28;20210;-67
2023/10/22 01:10:23;;;;;;;1.48;0.70;;;18.60;69.70;;;;;;5060348;28;20048;-66
2023/10/22 01:12:49;;;;;;;1.20;0.80;;;18.60;69.80;;;;;;5062477;28;20144;-66
2023/10/22 01:15:14;;;;;;;0.95;0.60;;;18.60;69.70;;;;;;5062605;28;20085;-66
2023/10/22 01:17:40;;;;;;;0.60;0.60;;;18.60;69.80;;;;;;5064850;28;20101;-64
2023/10/22 01:20:06;;;;;;;1.10;0.70;;;18.60;69.80;;;;;;5067504;28;20029;-66
2023/10/22 01:22:35;;;;;;;0.75;0.75;;;18.60;69.80;;;;;;5062641;28;20075;-65
2023/10/22 01:25:01;;;;;;;0.65;0.55;;;18.60;69.80;;;;;;5066323;28;20029;-65
2023/10/22 01:27:27;;;;;;;2.45;0.80;;;18.50;69.80;;;;;;5066197;28;20024;-64
2023/10/22 01:29:52;;;;;;;1.15;0.70;;;18.60;69.70;;;;;;5065764;28;20028;-67
2023/10/22 01:32:18;;;;;;;1.30;0.85;;;18.60;69.90;;;;;;5065700;28;20059;-66
2023/10/22 01:34:43;;;;;;;0.95;0.70;;;18.60;69.80;;;;;;5064967;28;20028;-66
2023/10/22 01:37:09;;;;;;;1.25;0.70;;;18.60;69.80;;;;;;5064879;28;20039;-66
2023/10/22 01:39:34;;;;;;;1.20;0.88;;;18.60;69.80;;;;;;5068509;28;20028;-64
2023/10/22 01:42:00;;;;;;;1.05;0.80;;;18.60;69.70;;;;;;5066131;28;20058;-70
2023/10/22 01:44:25;;;;;;;0.98;0.70;;;18.60;69.70;;;;;;5065780;28;20094;-65
2023/10/22 01:46:51;;;;;;;0.82;0.60;;;18.60;69.90;;;;;;5059079;28;20051;-65
2023/10/22 01:49:16;;;;;;;0.93;0.60;;;18.60;69.80;;;;;;5067551;28;20100;-66
2023/10/22 01:51:42;;;;;;;0.90;0.80;;;18.60;69.80;;;;;;5066697;28;20372;-65
2023/10/22 01:54:07;;;;;;;1.48;0.40;;;18.60;69.70;;;;;;5064366;28;20048;-64
2023/10/22 01:56:33;;;;;;;1.48;0.63;;;18.60;69.80;;;;;;5066592;28;20112;-65
2023/10/22 01:58:58;;;;;;;1.45;1.13;;;18.60;69.80;;;;;;5062070;28;20036;-65
2023/10/22 02:01:26;;;;;;;1.10;0.80;;;18.60;69.80;;;;;;5064954;28;20040;-67
2023/10/22 02:03:51;;;;;;;1.90;1.13;;;18.60;69.70;;;;;;5062471;28;20044;-64
2023/10/22 02:06:17;;;;;;;1.10;0.73;;;18.60;69.80;;;;;;5066547;28;20069;-64
2023/10/22 02:08:45;;;;;;;1.10;0.80;;;18.60;69.90;;;;;;5062510;28;20028;-66
2023/10/22 02:11:11;;;;;;;0.80;0.60;;;18.60;69.80;;;;;;5066151;28;20033;-68
2023/10/22 02:13:36;;;;;;;0.60;0.55;;;18.60;69.70;;;;;;5068878;28;20085;-67
2023/10/22 02:16:02;;;;;;;0.90;0.65;;;18.60;69.80;;;;;;5060069;28;20029;-66
2023/10/22 02:18:28;;;;;;;0.73;0.60;;;18.60;69.80;;;;;;5067673;28;20534;-64
2023/10/22 02:21:03;;;;;;;0.88;0.68;;;18.60;69.70;;;;;;5064090;28;20170;-67
2023/10/22 02:23:28;;;;;;;0.52;0.52;;;18.60;69.80;;;;;;5065525;28;20058;-67
2023/10/22 02:25:54;;;;;;;0.47;0.40;;;18.60;69.80;;;;;;5066158;28;20036;-64
2023/10/22 02:28:20;;;;;;;1.77;0.77;;;18.60;69.80;;;;;;5066213;28;20170;-67
2023/10/22 02:30:49;;;;;;;0.70;0.50;;;18.60;69.80;;;;;;5064153;28;22384;-66
2023/10/22 02:33:15;;;;;;;0.82;0.75;;;18.60;69.70;;;;;;5061103;28;20036;-66
2023/10/22 02:35:41;;;;;;;0.60;0.55;;;18.60;69.70;;;;;;5066301;28;20513;-66
2023/10/22 02:38:07;;;;;;;0.60;0.60;;;18.60;69.80;;;;;;5064177;28;20036;-66
2023/10/22 02:40:36;;;;;;;0.77;0.47;;;18.60;69.80;;;;;;5067905;28;20071;-66
2023/10/22 02:43:02;;;;;;;0.75;0.63;;;18.60;69.80;;;;;;5061125;28;20135;-66
2023/10/22 02:45:28;;;;;;;0.82;0.60;;;18.60;69.80;;;;;;5059266;28;20041;-67
2023/10/22 02:47:55;;;;;;;0.82;0.73;;;18.60;69.80;;;;;;5070227;28;20039;-66
2023/10/22 02:50:21;;;;;;;0.98;0.60;;;18.60;69.70;;;;;;5062192;28;20455;-67
2023/10/22 02:52:46;;;;;;;0.65;0.60;;;18.60;69.70;;;;;;5065882;28;20040;-67
2023/10/22 02:55:12;;;;;;;0.93;0.50;;;18.60;69.80;;;;;;5056578;28;20052;-66
2023/10/22 02:57:38;;;;;;;0.90;0.57;;;18.60;69.80;;;;;;5065933;28;20497;-66
2023/10/22 03:00:04;;;;;;;0.75;0.50;;;18.60;69.70;;;;;;5061241;28;20032;-66
2023/10/22 03:02:30;;;;;;;0.50;0.45;;;18.60;69.80;;;;;;5062428;28;20166;-67
2023/10/22 03:04:56;;;;;;;0.45;0.43;;;18.60;69.80;;;;;;5062432;28;20090;-66
2023/10/22 03:07:23;;;;;;;0.73;0.50;;;18.60;69.70;;;;;;5055243;28;20054;-66
2023/10/22 03:09:48;;;;;;;0.70;0.55;;;18.60;69.70;;;;;;5068032;28;20090;-66
2023/10/22 03:12:14;;;;;;;0.85;0.55;;;18.60;69.80;;;;;;5065917;28;20530;-67
2023/10/22 03:14:39;;;;;;;1.00;0.57;;;18.60;69.70;;;;;;5062545;28;20056;-66
2023/10/22 03:17:05;;;;;;;0.70;0.40;;;18.60;69.70;;;;;;5072027;28;20466;-67
2023/10/22 03:19:30;;;;;;;0.82;0.50;;;18.60;69.80;;;;;;5065787;28;20036;-67
2023/10/22 03:21:56;;;;;;;0.82;0.52;;;18.60;69.70;;;;;;5065782;28;20364;-63
2023/10/22 03:24:22;;;;;;;0.45;0.40;;;18.50;69.70;;;;;;5064805;28;20024;-66
2023/10/22 03:26:49;;;;;;;1.00;0.45;;;18.60;69.70;;;;;;5064467;28;20028;-67
2023/10/22 03:29:14;;;;;;;0.98;0.50;;;18.60;69.70;;;;;;5062123;28;20138;-63
2023/10/22 03:31:40;;;;;;;0.95;0.70;;;18.60;69.70;;;;;;5064888;28;20149;-66
2023/10/22 03:34:05;;;;;;;0.88;0.40;;;18.60;69.80;;;;;;5062717;28;20043;-67
2023/10/22 03:36:31;;;;;;;1.20;0.47;;;18.60;69.70;;;;;;5047556;28;20043;-66
2023/10/22 03:38:57;;;;;;;0.80;0.38;;;18.60;69.70;;;;;;5063424;28;20028;-66
2023/10/22 03:41:22;;;;;;;0.75;0.50;;;18.60;69.80;;;;;;5055823;28;20036;-66
2023/10/22 03:43:49;;;;;;;0.85;0.43;;;18.60;69.70;;;;;;5059965;28;20118;-67
2023/10/22 03:46:14;;;;;;;0.65;0.50;;;18.60;69.70;;;;;;5068994;28;20032;-67
2023/10/22 03:48:40;;;;;;;0.50;0.45;;;18.60;69.70;;;;;;5064084;28;20070;-67
2023/10/22 03:51:05;;;;;;;0.43;0.30;;;18.60;69.80;;;;;;5062372;28;20032;-67
2023/10/22 03:53:31;;;;;;;0.30;0.30;;;18.60;69.70;;;;;;5065035;28;20050;-66
2023/10/22 03:55:57;;;;;;;0.52;0.40;;;18.60;69.80;;;;;;5056005;28;20025;-66
2023/10/22 03:58:25;;;;;;;0.50;0.50;;;18.60;69.70;;;;;;5062460;28;20569;-66
2023/10/22 04:00:52;;;;;;;0.90;0.50;;;18.60;69.70;;;;;;5059641;28;20032;-67
2023/10/22 04:03:17;;;;;;;0.40;0.30;;;18.60;69.70;;;;;;5062475;28;20132;-66
2023/10/22 04:05:43;;;;;;;0.45;0.40;;;18.60;69.70;;;;;;5061703;28;20486;-66
2023/10/22 04:08:08;;;;;;;0.90;0.40;;;18.60;69.70;;;;;;5071228;28;20028;-66
2023/10/22 04:10:35;;;;;;;0.40;0.40;;;18.60;69.70;;;;;;5058266;28;20033;-67
2023/10/22 04:13:01;;;;;;;1.88;0.50;;;18.60;69.70;;;;;;5062199;28;20534;-67
2023/10/22 04:15:27;;;;;;;0.90;0.43;;;18.60;69.70;;;;;;5065667;28;20036;-67
2023/10/22 04:17:53;;;;;;;0.57;0.35;;;18.60;69.80;;;;;;5061481;28;20031;-66
2023/10/22 04:20:18;;;;;;;0.68;0.30;;;18.60;69.70;;;;;;5062881;28;20089;-67
2023/10/22 04:22:44;;;;;;;0.40;0.30;;;18.60;69.70;;;;;;5048542;28;20025;-63
2023/10/22 04:25:11;;;;;;;0.68;0.50;;;18.60;69.70;;;;;;5058971;28;20029;-67
2023/10/22 04:27:36;;;;;;;0.70;0.38;;;18.60;69.70;;;;;;5060457;28;20536;-67
2023/10/22 04:30:04;;;;;;;0.40;0.40;;;18.60;69.70;;;;;;5060092;28;20113;-64
2023/10/22 04:32:32;;;;;;;1.17;0.35;;;18.60;69.70;;;;;;5061789;28;20029;-68
2023/10/22 04:34:57;;;;;;;0.73;0.50;;;18.60;69.80;;;;;;5060267;28;20440;-65
2023/10/22 04:37:23;;;;;;;0.70;0.40;;;18.60;69.70;;;;;;5061978;28;20029;-63
2023/10/22 04:39:49;;;;;;;0.47;0.30;;;18.60;69.70;;;;;;5060204;28;20085;-66
2023/10/22 04:42:15;;;;;;;0.25;0.20;;;18.60;69.70;;;;;;5048950;28;20522;-67
2023/10/22 04:44:45;;;;;;;0.40;0.30;;;18.60;69.70;;;;;;5060129;28;20036;-67
2023/10/22 04:47:11;;;;;;;0.55;0.40;;;18.60;69.70;;;;;;5061638;28;20388;-67
2023/10/22 04:49:37;;;;;;;0.50;0.40;;;18.60;69.80;;;;;;5063493;28;20097;-66
2023/10/22 04:52:02;;;;;;;0.80;0.40;;;18.60;69.70;;;;;;5064245;28;20031;-66
2023/10/22 04:54:28;;;;;;;0.35;0.35;;;18.60;69.80;;;;;;5062125;28;20079;-67
2023/10/22 04:56:53;;;;;;;0.50;0.40;;;18.60;69.70;;;;;;5062096;28;20039;-67
2023/10/22 04:59:19;;;;;;;0.47;0.30;;;18.60;69.70;;;;;;5061496;28;20032;-66
2023/10/22 05:01:44;;;;;;;2.22;0.45;;;18.60;69.70;;;;;;5062555;28;20063;-66
2023/10/22 05:04:10;;;;;;;0.57;0.45;;;18.60;69.70;;;;;;5061119;28;20273;-66
2023/10/22 05:06:35;;;;;;;0.45;0.30;;;18.60;69.70;;;;;;5062895;28;20033;-63
2023/10/22 05:09:01;;;;;;;0.40;0.30;;;18.60;69.70;;;;;;5053080;28;20021;-67
2023/10/22 05:11:27;;;;;;;0.40;0.40;;;18.60;69.70;;;;;;5061888;28;20041;-67
2023/10/22 05:13:53;;;;;;;0.40;0.30;;;18.60;69.70;;;;;;5058313;28;20044;-67
2023/10/22 05:16:18;;;;;;;0.35;0.30;;;18.60;69.70;;;;;;5062979;28;20086;-66
2023/10/22 05:18:44;;;;;;;0.40;0.20;;;18.60;69.70;;;;;;5063557;28;20032;-67
2023/10/22 05:21:10;;;;;;;0.20;0.20;;;18.60;69.70;;;;;;5059344;28;20044;-62
2023/10/22 05:23:35;;;;;;;0.30;0.30;;;18.60;69.70;;;;;;5060696;28;20052;-66
2023/10/22 05:26:09;;;;;;;0.77;0.40;;;18.60;69.70;;;;;;5053193;28;20032;-67
2023/10/22 05:28:35;;;;;;;0.40;0.38;;;18.60;69.70;;;;;;5066432;28;20112;-66
2023/10/22 05:31:00;;;;;;;0.50;0.38;;;18.60;69.70;;;;;;5060187;28;20028;-67
2023/10/22 05:33:26;;;;;;;0.75;0.35;;;18.60;69.70;;;;;;5060579;28;20040;-66
2023/10/22 05:35:52;;;;;;;0.47;0.30;;;18.60;69.70;;;;;;5055797;28;20064;-66
2023/10/22 05:38:17;;;;;;;0.45;0.30;;;18.60;69.70;;;;;;5057354;28;20043;-66
2023/10/22 05:40:43;;;;;;;0.40;0.30;;;18.60;69.70;;;;;;5057691;28;20158;-67
2023/10/22 05:43:08;;;;;;;0.32;0.32;;;18.60;69.70;;;;;;5056443;28;20480;-67
2023/10/22 05:45:35;;;;;;;0.30;0.30;;;18.60;69.70;;;;;;5060559;28;20033;-67
2023/10/22 05:48:00;;;;;;;0.20;0.20;;;18.50;69.60;;;;;;5059453;28;20455;-66
2023/10/22 05:50:26;;;;;;;0.30;0.20;;;18.60;69.70;;;;;;5061086;28;20040;-66
2023/10/22 05:52:52;;;;;;;0.50;0.32;;;18.60;69.70;;;;;;5058672;28;20032;-67
2023/10/22 05:55:18;;;;;;;0.63;0.63;;;18.60;69.70;;;;;;5060640;28;20029;-67
2023/10/22 05:57:45;;;;;;;0.75;0.30;;;18.60;69.70;;;;;;5059338;28;20047;-66
2023/10/22 06:00:11;;;;;;;0.22;0.20;;;18.60;69.70;;;;;;5055547;28;20037;-66
2023/10/22 06:02:37;;;;;;;0.40;0.40;;;18.60;69.70;;;;;;5059301;28;20033;-66
2023/10/22 06:05:04;;;;;;;0.35;0.20;;;18.60;69.70;;;;;;5051457;28;20028;-66
2023/10/22 06:07:29;;;;;;;1.08;0.50;;;18.60;69.70;;;;;;5056789;28;20037;-64
2023/10/22 06:09:55;;;;;;;0.38;0.30;;;18.60;69.70;;;;;;5056365;28;20040;-67
2023/10/22 06:12:21;;;;;;;1.95;0.30;;;18.60;69.70;;;;;;5038713;28;20029;-63
2023/10/22 06:14:46;;;;;;;0.30;0.30;;;18.60;69.70;;;;;;5043901;28;20029;-66
2023/10/22 06:17:12;;;;;;;0.40;0.30;;;18.60;69.70;;;;;;5063388;28;20013;-67
2023/10/22 06:19:38;;;;;;;0.45;0.40;;;18.60;69.70;;;;;;5063893;28;20024;-67
2023/10/22 06:22:04;;;;;;;0.30;0.30;;;18.60;69.70;;;;;;5062153;28;20035;-66
2023/10/22 06:24:29;;;;;;;0.50;0.30;;;18.60;69.70;;;;;;5064375;28;20416;-67
2023/10/22 06:26:55;;;;;;;0.52;0.50;;;18.60;69.70;;;;;;5062745;28;20028;-67
2023/10/22 06:29:20;;;;;;;0.95;0.40;;;18.60;69.70;;;;;;5062604;28;20032;-67
2023/10/22 06:31:46;;;;;;;0.30;0.30;;;18.60;69.70;;;;;;5060430;28;20131;-67
2023/10/22 06:34:11;;;;;;;0.65;0.50;;;18.60;69.70;;;;;;5058615;28;20494;-67
2023/10/22 06:36:37;;;;;;;0.57;0.30;;;18.60;69.60;;;;;;5057137;28;20082;-67
2023/10/22 06:39:03;;;;;;;0.50;0.30;;;18.60;69.70;;;;;;5059779;28;20033;-67
2023/10/22 06:41:28;;;;;;;0.75;0.55;;;18.60;69.70;;;;;;5063013;28;20522;-67
2023/10/22 06:43:54;;;;;;;0.40;0.40;;;18.60;69.60;;;;;;5064383;28;20028;-67
2023/10/22 06:46:20;;;;;;;0.77;0.40;;;18.60;69.60;;;;;;5064067;28;20041;-67
2023/10/22 06:48:47;;;;;;;0.35;0.32;;;18.60;69.60;;;;;;5063943;28;20499;-66
2023/10/22 06:51:16;;;;;;;0.50;0.30;;;18.60;69.60;;;;;;5061231;28;20040;-66
2023/10/22 06:53:43;;;;;;;0.75;0.47;;;18.60;69.60;;;;;;5063390;28;20024;-66
2023/10/22 06:56:11;;;;;;;0.63;0.40;;;18.60;69.60;;;;;;5060029;28;20032;-66
2023/10/22 06:58:37;;;;;;;0.30;0.30;;;18.60;69.60;;;;;;5056831;28;20029;-66
2023/10/22 07:01:07;;;;;;;0.40;0.30;;;18.60;69.60;;;;;;5060135;28;20032;-67
2023/10/22 07:03:39;;;;;;;0.30;0.30;;;18.60;69.60;;;;;;5060860;28;20498;-67
2023/10/22 07:06:05;;;;;;;0.20;0.20;;;18.60;69.60;;;;;;5058660;28;20139;-66
2023/10/22 07:08:31;;;;;;;0.55;0.30;;;18.60;69.60;;;;;;5057276;28;20028;-66
2023/10/22 07:10:57;;;;;;;1.08;0.30;;;18.60;69.60;;;;;;5062565;28;20063;-67
2023/10/22 07:13:24;;;;;;;0.57;0.40;;;18.60;69.60;;;;;;5060530;28;20406;-66
2023/10/22 07:15:50;;;;;;;0.85;0.40;;;18.60;69.50;;;;;;5063534;28;20062;-67
2023/10/22 07:18:16;;;;;;;1.20;0.55;;;18.60;69.50;;;;;;5061395;28;20086;-66
2023/10/22 07:20:41;;;;;;;6.72;0.65;;;18.60;69.50;;;;;;5042157;28;20028;-68
2023/10/22 07:23:07;;;;;;;1.33;0.50;;;18.60;69.50;;;;;;5056686;28;20941;-67
2023/10/22 07:25:33;;;;;;;0.65;0.40;;;18.60;69.50;;;;;;5061121;28;20036;-66
2023/10/22 07:27:59;;;;;;;0.70;0.50;;;18.60;69.50;;;;;;5056920;28;20028;-67
2023/10/22 07:30:24;;;;;;;0.77;0.40;;;18.60;69.50;;;;;;5048890;28;20114;-66
2023/10/22 07:32:51;;;;;;;0.88;0.50;;;18.60;69.50;;;;;;5047619;28;20033;-68
2023/10/22 07:35:17;;;;;;;3.50;0.77;;;18.60;69.50;;;;;;5057013;28;20938;-66
2023/10/22 07:37:44;;;;;;;4.13;1.20;;;18.60;69.50;;;;;;5057246;28;20040;-67
2023/10/22 07:40:11;;;;;;;2.03;1.40;;;18.60;69.60;;;;;;5051329;28;20033;-62
2023/10/22 07:42:37;;;;;;;3.47;1.38;;;18.60;69.60;;;;;;5057915;28;20243;-67
2023/10/22 07:45:03;;;;;;;4.53;2.10;;;18.60;69.60;;;;;;5062762;28;20553;-69
2023/10/22 07:47:29;;;;;;;2.13;1.60;;;18.60;69.60;;;;;;5062600;28;20028;-67
2023/10/22 07:49:54;;;;;;;3.33;2.25;;;18.60;69.60;;;;;;5061234;28;20024;-68
2023/10/22 07:52:20;;;;;;;7.28;2.10;;;18.60;69.60;;;;;;5050861;28;20036;-69
2023/10/22 07:54:52;;;;;;;3.45;1.98;;;18.60;69.60;;;;;;5061788;28;20043;-68
2023/10/22 07:57:18;;;;;;;3.60;2.35;;;18.60;69.60;;;;;;5065751;28;20647;-67
2023/10/22 07:59:44;;;;;;;6.78;2.60;;;18.60;69.60;;;;;;5059802;28;20028;-62
2023/10/22 08:02:10;;;;;;;4.90;2.53;;;18.60;69.50;;;;;;5047187;28;20037;-67
2023/10/22 08:04:37;;;;;;;5.90;2.67;;;18.60;69.60;;;;;;5056556;28;20040;-66
2023/10/22 08:07:03;;;;;;;7.47;3.75;;;18.60;69.50;;;;;;5057708;28;20036;-67
2023/10/22 08:09:29;;;;;;;6.43;3.15;;;18.60;69.50;;;;;;5062539;28;20487;-66
2023/10/22 08:11:54;;;;;;;5.88;3.00;;;18.60;69.50;;;;;;5053190;28;20063;-66
2023/10/22 08:14:20;;;;;;;6.45;3.58;;;18.60;69.50;;;;;;5061935;28;20363;-67
2023/10/22 08:16:45;;;;;;;4.32;3.00;;;18.60;69.50;;;;;;5050662;28;20040;-67
2023/10/22 08:19:11;;;;;;;3.75;2.45;;;18.60;69.50;;;;;;5061263;28;20062;-67
2023/10/22 08:21:36;;;;;;;5.72;3.55;;;18.60;69.50;;;;;;5061484;28;20094;-62
2023/10/22 08:24:02;;;;;;;5.85;3.30;;;18.60;69.50;;;;;;5059254;28;20052;-66
2023/10/22 08:26:27;;;;;;;4.50;2.92;;;18.60;69.50;;;;;;5042842;28;20136;-67
2023/10/22 08:28:53;;;;;;;6.25;3.60;;;18.60;69.50;;;;;;5059595;28;20028;-66
2023/10/22 08:31:19;;;;;;;4.20;3.10;;;18.60;69.50;;;;;;5047417;28;22210;-63
2023/10/22 08:33:45;;;;;;;5.85;3.72;;;18.60;69.40;;;;;;5056558;28;20112;-66
2023/10/22 08:36:10;;;;;;;3.75;2.85;;;18.60;69.50;;;;;;5053652;28;20109;-67
2023/10/22 08:38:37;;;;;;;5.22;3.30;;;18.60;69.40;;;;;;5063151;28;20140;-66
2023/10/22 08:41:05;;;;;;;4.50;3.25;;;18.60;69.40;;;;;;5039899;28;20032;-65
2023/10/22 08:43:32;;;;;;;6.45;4.25;;;18.60;69.50;;;;;;5062663;28;20036;-65
2023/10/22 08:45:58;;;;;;;9.27;3.65;;;18.60;69.60;;;;;;5038689;28;20025;-65
2023/10/22 08:48:25;;;;;;;5.40;3.50;;;18.60;69.50;;;;;;5045843;28;20128;-65
2023/10/22 08:50:52;;;;;;;6.15;4.07;;;18.60;69.50;;;;;;5058058;28;20490;-65
2023/10/22 08:53:18;;;;;;;9.68;4.43;;;18.60;69.50;;;;;;5065832;28;20028;-65
2023/10/22 08:55:45;;;;;;;5.70;3.72;;;18.60;69.50;;;;;;5061611;28;20036;-65
2023/10/22 08:58:15;;;;;;;7.28;4.32;;;18.60;69.50;;;;;;5059001;28;20060;-65
2023/10/22 09:00:45;;;;;;;5.35;3.20;;;18.60;69.50;;;;;;5056240;28;20048;-65
2023/10/22 09:03:14;;;;;;;5.75;3.33;;;18.60;69.50;;;;;;5057557;28;20045;-65
2023/10/22 09:05:40;;;;;;;5.05;2.85;;;18.60;69.50;;;;;;5063162;28;20038;-67
2023/10/22 09:08:06;;;;;;;7.57;3.45;;;18.60;69.50;;;;;;5060258;28;20029;-67
2023/10/22 09:10:34;;;;;;;5.47;3.10;;;18.60;69.50;;;;;;5062706;28;20035;-66
2023/10/22 09:13:22;;;;;;;6.00;4.10;;;18.60;69.50;;;;;;5060146;28;20160;-65
2023/10/22 09:15:49;;;;;;;5.45;3.10;;;18.60;69.40;;;;;;5063011;28;20056;-66
2023/10/22 09:18:16;;;;;;;5.55;3.25;;;18.70;69.40;;;;;;5062499;28;20419;-66
2023/10/22 09:20:44;;;;;;;6.90;3.65;;;18.60;69.40;;;;;;5057560;28;20483;-65
2023/10/22 09:23:23;;;;;;;7.80;2.97;;;18.60;69.30;;;;;;5060971;28;20035;-65
2023/10/22 09:25:50;;;;;;;5.57;3.10;;;18.60;69.30;;;;;;5056778;28;20031;-66
2023/10/22 09:28:20;;;;;;;6.18;2.60;;;18.60;69.30;;;;;;5059743;28;20036;-64
2023/10/22 09:30:54;;;;;;;7.30;3.72;;;18.70;69.30;;;;;;5057789;28;20487;-65
2023/10/22 09:33:33;;;;;;;4.30;2.50;;;18.60;69.30;;;;;;5057992;28;20060;-66
2023/10/22 09:36:01;;;;;;;7.93;2.90;;;18.60;69.20;;;;;;5062002;28;20101;-65
2023/10/22 09:38:41;;;;;;;4.80;3.25;;;18.60;69.20;;;;;;5052217;28;20035;-68
2023/10/22 09:41:07;;;;;;;6.95;3.03;;;18.70;69.20;;;;;;5058280;28;20051;-66
2023/10/22 09:43:32;;;;;;;6.53;3.05;;;18.60;69.20;;;;;;5061136;28;20032;-66
2023/10/22 09:45:59;;;;;;;5.25;2.92;;;18.70;69.20;;;;;;5063022;28;20040;-65
2023/10/22 09:48:26;;;;;;;4.38;2.97;;;18.70;69.10;;;;;;5064174;28;20074;-66
2023/10/22 09:50:53;;;;;;;5.40;2.50;;;18.60;69.10;;;;;;5061609;28;20072;-66
2023/10/22 09:53:23;;;;;;;3.90;2.42;;;18.70;69.10;;;;;;5065619;28;20032;-66
2023/10/22 09:55:50;;;;;;;4.32;2.20;;;18.70;69.00;;;;;;5055479;28;20056;-66
2023/10/22 09:58:17;;;;;;;8.70;2.95;;;18.70;69.10;;;;;;5059144;28;20116;-66
2023/10/22 10:00:44;;;;;;;4.93;2.50;;;18.70;69.00;;;;;;5054690;28;20518;-65
2023/10/22 10:03:10;;;;;;;4.32;2.30;;;18.70;69.00;;;;;;5054637;28;20037;-66
2023/10/22 10:05:37;;;;;;;5.30;2.50;;;18.70;69.00;;;;;;5064196;28;20454;-66
2023/10/22 10:08:03;;;;;;;4.65;2.25;;;18.60;68.90;;;;;;5061463;28;20032;-65
2023/10/22 10:10:29;;;;;;;6.03;2.13;;;18.70;68.90;;;;;;5061925;28;20638;-66
2023/10/22 10:12:55;;;;;;;4.07;2.10;;;18.70;68.90;;;;;;5064956;28;20029;-66
2023/10/22 10:15:31;;;;;;;6.43;2.00;;;18.60;68.80;;;;;;5075501;28;20032;-66
2023/10/22 10:17:57;;;;;;;4.47;2.00;;;18.70;68.90;;;;;;5064500;28;20029;-66
2023/10/22 10:20:24;;;;;;;3.90;2.00;;;18.70;68.90;;;;;;5058908;28;20403;-66
2023/10/22 10:23:03;;;;;;;2.95;1.92;;;18.60;68.80;;;;;;5062605;28;20043;-66
2023/10/22 10:25:29;;;;;;;4.43;2.20;;;18.60;68.80;;;;;;5055373;28;20033;-66
2023/10/22 10:27:54;;;;;;;9.15;2.50;;;18.60;68.70;;;;;;5061495;28;20108;-66
2023/10/22 10:30:20;;;;;;;4.60;1.70;;;18.60;68.70;;;;;;5060723;28;20127;-66
2023/10/22 10:32:49;;;;;;;4.05;2.40;;;18.60;68.70;;;;;;5058643;28;20021;-66
2023/10/22 10:35:15;;;;;;;5.18;2.00;;;18.70;68.70;;;;;;5064380;28;20513;-66
2023/10/22 10:38:15;;;;;;;4.88;2.05;;;18.70;68.70;;;;;;5062346;28;20124;-66
2023/10/22 10:40:46;;;;;;;3.90;1.90;;;18.60;68.60;;;;;;5062380;28;20297;-66
2023/10/22 10:43:12;;;;;;;3.25;1.48;;;18.70;68.70;;;;;;5055934;28;20025;-66
2023/10/22 10:45:43;;;;;;;5.63;2.42;;;18.70;68.60;;;;;;5061541;28;20352;-66
2023/10/22 10:48:49;;;;;;;7.65;2.28;;;18.60;68.50;;;;;;5062249;28;20025;-66
2023/10/22 10:51:24;;;;;;;3.95;2.13;;;18.60;68.60;;;;;;5057060;28;20052;-67
2023/10/22 10:54:02;;;;;;;3.80;1.73;;;18.60;68.60;;;;;;5057620;28;20043;-67
2023/10/22 10:56:56;;;;;;;2.72;1.83;;;18.60;68.50;;;;;;5063739;28;20033;-65
2023/10/22 10:59:31;;;;;;;3.78;1.50;;;18.60;69.10;;;;;;5060025;28;20040;-66
2023/10/22 11:02:01;;;;;;;3.28;1.42;;;18.60;68.50;;;;;;5063634;28;20706;-66
2023/10/22 11:04:27;;;;;;;6.20;1.83;;;18.60;68.60;;;;;;5058717;28;20036;-66
2023/10/22 11:06:53;;;;;;;4.18;1.80;;;18.60;68.50;;;;;;5061422;28;20053;-66
2023/10/22 11:09:18;;;;;;;3.85;1.63;;;18.70;68.60;;;;;;5062544;28;20450;-66
2023/10/22 11:12:03;;;;;;;3.88;1.70;;;18.70;68.60;;;;;;5048245;28;20048;-65
2023/10/22 11:14:30;;;;;;;2.53;1.35;;;18.60;68.50;;;;;;5045438;28;20028;-65
2023/10/22 11:16:59;;;;;;;4.45;1.63;;;18.70;68.60;;;;;;5060468;28;20025;-64
2023/10/22 11:19:26;;;;;;;2.50;1.27;;;18.70;68.50;;;;;;5059518;28;20028;-66
2023/10/22 11:21:54;;;;;;;4.13;1.58;;;18.60;68.50;;;;;;5058018;28;20036;-63
2023/10/22 11:24:21;;;;;;;3.38;1.63;;;18.70;68.60;;;;;;5062010;28;20511;-66
2023/10/22 11:26:48;;;;;;;3.72;1.55;;;18.70;68.60;;;;;;5058714;28;20028;-66
2023/10/22 11:29:15;;;;;;;6.28;1.77;;;18.60;68.50;;;;;;5064277;28;20025;-66
2023/10/22 11:31:56;;;;;;;4.20;1.67;;;18.70;68.60;;;;;;5057654;28;20556;-66
2023/10/22 11:34:22;;;;;;;4.10;1.60;;;18.70;68.60;;;;;;5058784;28;20032;-66
2023/10/22 11:36:55;;;;;;;5.95;1.45;;;18.70;68.60;;;;;;5061727;28;20037;-66
2023/10/22 11:39:21;;;;;;;3.13;1.55;;;18.70;68.60;;;;;;5060881;28;20426;-65
2023/10/22 11:41:57;;;;;;;7.18;1.95;;;18.60;68.50;;;;;;5059026;28;20029;-67
2023/10/22 11:44:34;;;;;;;9.52;4.00;;;18.70;68.60;;;;;;5060991;28;20036;-65
2023/10/22 11:47:02;;;;;;;9.38;4.43;;;18.70;68.60;;;;;;5051784;28;20016;-66
2023/10/22 11:49:28;;;;;;;18.50;8.98;;;18.70;68.60;;;;;;5061358;28;20498;-68
2023/10/22 11:51:53;;;;;;;17.42;9.15;;;18.70;68.70;;;;;;5059913;28;20063;-66
2023/10/22 11:54:20;;;;;;;36.28;15.45;;;18.70;68.80;;;;;;5057275;28;20090;-64
2023/10/22 11:56:47;;;;;;;65.80;26.15;;;18.70;68.90;;;;;;5055685;28;20025;-68
2023/10/22 11:59:12;;;;;;;76.85;34.53;;;18.70;69.00;;;;;;5064461;28;20028;-65
2023/10/22 12:01:40;;;;;;;167.20;73.53;;;18.70;69.20;;;;;;5061465;28;20029;-67
2023/10/22 12:04:06;;;;;;;143.38;61.88;;;18.60;69.30;;;;;;5062990;28;20032;-66
2023/10/22 12:06:31;;;;;;;184.15;83.65;;;18.70;69.50;;;;;;5063409;28;20040;-66
2023/10/22 12:08:57;;;;;;;230.25;101.43;;;18.70;69.50;;;;;;5055391;28;20049;-68
2023/10/22 12:11:22;;;;;;;217.05;95.72;;;18.70;69.50;;;;;;5063006;28;20044;-67
2023/10/22 12:13:48;;;;;;;227.75;99.35;;;18.70;69.60;;;;;;5059971;28;20100;-67
2023/10/22 12:16:13;;;;;;;241.38;103.13;;;18.70;69.70;;;;;;5054684;28;20033;-65
2023/10/22 12:18:39;;;;;;;231.05;102.82;;;18.70;69.60;;;;;;5054340;28;20060;-67
2023/10/22 12:21:04;;;;;;;209.45;98.82;;;18.70;69.60;;;;;;5056255;28;20116;-68
2023/10/22 12:23:30;;;;;;;229.40;102.43;;;18.70;69.50;;;;;;5054743;28;20059;-68
2023/10/22 12:25:56;;;;;;;215.60;96.32;;;18.70;69.50;;;;;;5060143;28;20040;-69
2023/10/22 12:28:24;;;;;;;224.52;97.97;;;18.70;69.40;;;;;;5061530;28;20032;-67
2023/10/22 12:30:50;;;;;;;206.50;93.53;;;18.70;69.50;;;;;;5057514;28;20033;-64
2023/10/22 12:33:15;;;;;;;208.15;92.80;;;18.70;69.30;;;;;;5054945;28;20116;-65
2023/10/22 12:35:41;;;;;;;210.43;93.10;;;18.70;69.30;;;;;;5059245;28;20455;-63
2023/10/22 12:38:06;;;;;;;191.70;88.30;;;18.70;69.30;;;;;;5056864;28;20036;-65
2023/10/22 12:40:32;;;;;;;184.90;85.65;;;18.70;69.20;;;;;;5060680;28;20615;-68
2023/10/22 12:42:58;;;;;;;183.75;85.57;;;18.70;69.20;;;;;;5059664;28;20407;-65
2023/10/22 12:45:23;;;;;;;184.05;86.68;;;18.70;69.20;;;;;;5058539;28;20115;-66